Time;durP1;ratioP1;P1;durP2;ratioP2;P2;SDS_P1;SDS_P2;PMS_P1;PMS_P2;Temp;Humidity;BMP_temperature;BMP_pressure;BME280_temperature;BME280_humidity;BME280_pressure;Samples;Min_cycle;Max_cycle;Signal;HPM_P1;HPM_P2
2021/04/03 00:00:44;;;;;;;7.47;3.87;;;;;;;4.36;71.73;100085.46;126128;1099;104169;-79
2021/04/03 00:03:20;;;;;;;8.30;4.37;;;;;;;4.36;71.60;100081.98;126210;1099;104338;-78
2021/04/03 00:05:49;;;;;;;7.40;3.80;;;;;;;4.31;71.56;100087.81;126162;1099;104158;-78
2021/04/03 00:08:22;;;;;;;9.27;4.37;;;;;;;4.29;71.69;100091.16;126197;1099;104152;-77
2021/04/03 00:10:54;;;;;;;11.27;4.50;;;;;;;4.22;71.40;100083.83;126069;1099;104287;-77
2021/04/03 00:13:30;;;;;;;8.00;4.13;;;;;;;4.17;71.34;100077.50;126250;1099;104172;-79
2021/04/03 00:15:58;;;;;;;6.83;4.17;;;;;;;4.11;71.33;100080.64;126273;1099;104172;-77
2021/04/03 00:18:27;;;;;;;7.00;3.80;;;;;;;4.12;71.97;100085.04;126267;1099;104146;-78
2021/04/03 00:20:56;;;;;;;13.13;4.20;;;;;;;4.10;71.59;100079.77;126239;1096;104277;-79
2021/04/03 00:23:25;;;;;;;7.07;3.90;;;;;;;4.09;71.55;100077.97;126280;1096;104149;-78
2021/04/03 00:25:55;;;;;;;8.80;4.20;;;;;;;4.08;71.42;100071.01;126260;1099;104929;-77
2021/04/03 00:28:24;;;;;;;9.90;4.40;;;;;;;4.07;71.65;100076.12;126244;1096;104137;-78
2021/04/03 00:30:54;;;;;;;7.75;4.20;;;;;;;4.05;71.38;100072.52;126265;1096;104137;-78
2021/04/03 00:33:22;;;;;;;8.73;4.40;;;;;;;4.02;71.53;100069.75;126278;1099;104268;-78
2021/04/03 00:35:53;;;;;;;9.83;4.37;;;;;;;3.97;71.59;100059.12;126252;1099;104316;-78
2021/04/03 00:38:22;;;;;;;9.97;4.37;;;;;;;3.94;71.11;100058.95;126248;1099;104278;-78
2021/04/03 00:40:51;;;;;;;9.63;4.47;;;;;;;3.92;71.83;100061.46;126242;1096;104217;-78
2021/04/03 00:43:25;;;;;;;10.33;4.30;;;;;;;3.90;71.79;100054.42;126283;1096;104145;-78
2021/04/03 00:45:54;;;;;;;10.90;4.50;;;;;;;3.89;71.43;100053.50;126278;1096;104156;-78
2021/04/03 00:48:25;;;;;;;9.67;4.63;;;;;;;3.87;71.45;100055.13;126248;1096;104315;-78
2021/04/03 00:50:56;;;;;;;9.77;4.33;;;;;;;3.89;71.55;100055.22;126237;1099;104204;-78
2021/04/03 00:53:27;;;;;;;9.60;4.67;;;;;;;3.87;71.66;100059.44;126305;1098;110728;-78
2021/04/03 00:56:04;;;;;;;11.87;4.87;;;;;;;3.83;71.41;100065.26;126307;1097;104163;-78
2021/04/03 00:58:34;;;;;;;10.80;5.10;;;;;;;3.80;71.65;100065.09;126270;1099;104137;-78
2021/04/03 01:01:05;;;;;;;11.25;4.60;;;;;;;3.75;71.60;100064.83;126198;1099;104271;-79
2021/04/03 01:03:37;;;;;;;8.98;4.65;;;;;;;3.73;72.16;100067.34;126327;1096;104184;-78
2021/04/03 01:06:07;;;;;;;9.65;4.55;;;;;;;3.74;71.71;100070.81;126211;1099;101803;-78
2021/04/03 01:08:36;;;;;;;10.00;4.67;;;;;;;3.73;71.37;100076.84;126302;1096;104576;-79
2021/04/03 01:11:07;;;;;;;9.70;4.33;;;;;;;3.75;72.19;100070.91;126326;1096;104219;-78
2021/04/03 01:13:47;;;;;;;8.33;4.13;;;;;;;3.76;71.69;100071.81;126198;1099;107871;-78
2021/04/03 01:16:31;;;;;;;11.57;5.20;;;;;;;3.75;71.81;100080.40;126292;1099;104258;-78
2021/04/03 01:19:38;;;;;;;12.00;5.17;;;;;;;3.74;71.71;100078.60;126284;1099;104173;-78
2021/04/03 01:22:32;;;;;;;13.27;5.27;;;;;;;3.70;71.31;100087.92;126250;1097;104201;-77
2021/04/03 01:25:18;;;;;;;13.37;5.50;;;;;;;3.68;71.48;100084.36;126292;1098;104169;-77
2021/04/03 01:28:03;;;;;;;13.07;5.43;;;;;;;3.65;71.83;100079.00;126258;1099;104140;-78
2021/04/03 01:30:32;;;;;;;10.43;5.75;;;;;;;3.65;71.79;100073.81;126279;1099;104149;-78
2021/04/03 01:33:08;;;;;;;11.50;5.33;;;;;;;3.63;71.71;100082.30;126277;1099;104149;-78
2021/04/03 01:35:44;;;;;;;11.43;5.00;;;;;;;3.63;71.84;100085.81;126261;1099;104271;-79
2021/04/03 01:38:24;;;;;;;10.87;4.80;;;;;;;3.62;72.22;100080.53;126265;1099;104235;-79
2021/04/03 01:40:55;;;;;;;11.70;5.25;;;;;;;3.58;71.99;100088.14;126272;1099;104230;-78
2021/04/03 01:43:27;;;;;;;12.37;5.37;;;;;;;3.53;71.65;100079.19;126234;1099;104242;-78
2021/04/03 01:45:58;;;;;;;12.00;5.57;;;;;;;3.52;71.80;100079.09;126300;1099;104140;-79
2021/04/03 01:48:30;;;;;;;13.70;5.90;;;;;;;3.48;72.03;100075.44;126301;1097;104152;-78
2021/04/03 01:51:00;;;;;;;12.77;5.53;;;;;;;3.44;72.30;100078.66;126294;1098;104141;-79
2021/04/03 01:53:30;;;;;;;12.50;4.97;;;;;;;3.45;71.77;100089.95;126175;1099;104287;-78
2021/04/03 01:56:03;;;;;;;12.58;5.10;;;;;;;3.46;72.19;100086.52;126240;1099;104169;-78
2021/04/03 01:58:42;;;;;;;11.33;5.20;;;;;;;3.48;72.22;100088.41;126303;1099;104137;-78
2021/04/03 02:01:14;;;;;;;12.17;5.00;;;;;;;3.51;72.19;100088.59;126292;1099;102145;-78
2021/04/03 02:03:45;;;;;;;10.03;5.07;;;;;;;3.47;71.88;100083.14;126252;1099;104290;-77
2021/04/03 02:06:16;;;;;;;12.20;5.27;;;;;;;3.45;72.29;100066.60;126196;1099;104198;-77
2021/04/03 02:08:59;;;;;;;10.90;5.03;;;;;;;3.42;71.99;100069.91;126277;1098;105749;-77
2021/04/03 02:11:43;;;;;;;11.20;4.97;;;;;;;3.35;72.30;100058.30;126275;1099;104127;-79
2021/04/03 02:14:27;;;;;;;9.87;4.70;;;;;;;3.30;72.34;100061.41;126231;1096;104137;-79
2021/04/03 02:16:56;;;;;;;11.03;4.90;;;;;;;3.26;72.35;100062.03;126244;1099;104213;-78
2021/04/03 02:19:26;;;;;;;10.07;4.80;;;;;;;3.23;71.73;100054.98;126269;1096;104159;-78
2021/04/03 02:21:55;;;;;;;9.70;4.70;;;;;;;3.21;72.40;100054.91;126229;1099;104133;-78
2021/04/03 02:24:24;;;;;;;9.77;4.87;;;;;;;3.21;71.82;100061.77;126236;1096;104140;-78
2021/04/03 02:26:55;;;;;;;10.80;4.87;;;;;;;3.23;71.88;100057.59;126330;1099;104171;-78
2021/04/03 02:29:24;;;;;;;10.80;5.00;;;;;;;3.24;72.49;100054.16;126312;1099;104143;-78
2021/04/03 02:31:53;;;;;;;9.53;5.07;;;;;;;3.23;72.31;100058.47;126236;1097;104172;-78
2021/04/03 02:34:22;;;;;;;12.13;5.50;;;;;;;3.20;72.25;100055.70;126245;1096;104140;-78
2021/04/03 02:36:51;;;;;;;9.23;5.00;;;;;;;3.18;72.07;100052.13;126186;1096;104146;-78
2021/04/03 02:39:21;;;;;;;13.13;5.30;;;;;;;3.16;72.52;100064.09;126312;1096;104133;-78
2021/04/03 02:41:58;;;;;;;11.20;5.00;;;;;;;3.13;71.93;100069.12;126227;1099;104284;-78
2021/04/03 02:44:34;;;;;;;10.83;4.93;;;;;;;3.14;72.53;100059.64;126182;1096;104274;-77
2021/04/03 02:47:07;;;;;;;12.13;5.13;;;;;;;3.13;71.65;100056.17;126287;1099;104271;-78
2021/04/03 02:49:42;;;;;;;9.27;4.77;;;;;;;3.17;72.37;100065.89;126276;1099;103251;-78
2021/04/03 02:52:14;;;;;;;9.80;4.57;;;;;;;3.21;72.29;100064.36;126242;1099;104143;-78
2021/04/03 02:54:44;;;;;;;10.77;4.87;;;;;;;3.22;72.63;100080.00;126257;1096;104293;-78
2021/04/03 02:57:16;;;;;;;14.57;5.17;;;;;;;3.23;72.80;100076.62;126232;1099;104335;-78
2021/04/03 02:59:54;;;;;;;11.23;5.00;;;;;;;3.21;72.74;100075.65;126261;1096;104166;-77
2021/04/03 03:02:26;;;;;;;10.87;5.00;;;;;;;3.20;72.73;100081.63;126291;1096;104168;-78
2021/04/03 03:04:56;;;;;;;11.57;5.03;;;;;;;3.18;72.32;100071.95;126290;1096;104223;-78
2021/04/03 03:07:26;;;;;;;15.07;5.77;;;;;;;3.13;72.82;100066.53;126253;1098;104156;-78
2021/04/03 03:09:57;;;;;;;11.00;5.00;;;;;;;3.06;72.48;100064.37;126219;1099;104162;-78
2021/04/03 03:12:32;;;;;;;13.73;5.33;;;;;;;3.00;71.77;100057.13;126308;1099;104140;-78
2021/04/03 03:15:04;;;;;;;9.87;4.70;;;;;;;2.98;72.06;100047.49;126188;1099;104163;-78
2021/04/03 03:17:35;;;;;;;9.83;4.70;;;;;;;3.00;72.25;100041.57;126268;1099;104146;-78
2021/04/03 03:20:07;;;;;;;11.63;4.93;;;;;;;3.06;72.36;100038.45;126296;1099;104137;-78
2021/04/03 03:22:37;;;;;;;13.53;5.03;;;;;;;3.13;72.86;100040.61;126274;1099;104246;-78
2021/04/03 03:25:11;;;;;;;10.97;4.87;;;;;;;3.14;72.72;100029.41;126243;1099;104213;-78
2021/04/03 03:27:44;;;;;;;12.43;5.20;;;;;;;3.13;72.28;100031.92;126247;1099;104152;-79
2021/04/03 03:30:15;;;;;;;;;;;;;;;3.04;72.38;100033.18;126303;1099;104165;-78
2021/04/03 03:32:44;;;;;;;13.37;5.60;;;;;;;2.98;72.07;100034.53;126287;1099;104267;-79
2021/04/03 03:35:15;;;;;;;11.05;5.00;;;;;;;2.96;72.63;100036.12;126178;1098;105469;-77
2021/04/03 03:37:45;;;;;;;14.87;5.70;;;;;;;2.95;73.30;100029.17;126300;1099;104144;-78
2021/04/03 03:40:16;;;;;;;12.37;5.80;;;;;;;2.93;72.57;100035.94;126292;1099;104130;-78
2021/04/03 03:42:47;;;;;;;12.10;5.50;;;;;;;2.93;72.88;100036.85;126259;1099;104438;-78
2021/04/03 03:45:20;;;;;;;15.40;6.05;;;;;;;2.96;72.33;100044.81;126255;1099;104943;-79
2021/04/03 03:47:50;;;;;;;13.43;5.60;;;;;;;2.99;72.75;100044.98;126212;1099;104191;-78
2021/04/03 03:50:20;;;;;;;15.00;5.93;;;;;;;3.03;72.98;100048.64;126261;1099;104210;-78
2021/04/03 03:52:49;;;;;;;13.40;5.53;;;;;;;3.09;73.12;100053.30;126286;1099;104219;-78
2021/04/03 03:55:19;;;;;;;12.17;5.40;;;;;;;3.15;72.99;100058.84;126267;1098;104157;-78
2021/04/03 03:57:48;;;;;;;13.03;5.20;;;;;;;3.15;72.57;100053.66;126281;1099;104415;-78
2021/04/03 04:00:19;;;;;;;12.53;5.80;;;;;;;3.12;72.80;100056.96;126244;1099;104277;-78
2021/04/03 04:02:53;;;;;;;14.20;5.80;;;;;;;3.08;72.43;100057.58;126323;1099;104152;-78
2021/04/03 04:05:24;;;;;;;11.93;5.83;;;;;;;3.05;72.26;100057.39;126222;1099;104143;-79
2021/04/03 04:08:01;;;;;;;13.50;6.07;;;;;;;3.08;72.46;100056.69;126225;1099;104157;-77
2021/04/03 04:10:31;;;;;;;14.30;6.13;;;;;;;3.12;72.64;100056.96;126219;1099;104274;-78
2021/04/03 04:13:02;;;;;;;15.43;6.03;;;;;;;3.14;72.85;100067.42;126143;1099;104202;-79
2021/04/03 04:15:31;;;;;;;17.50;6.57;;;;;;;3.17;72.51;100068.48;126197;1096;104140;-79
2021/04/03 04:18:00;;;;;;;12.07;5.73;;;;;;;3.26;72.85;100072.41;126124;1099;104261;-79
2021/04/03 04:20:30;;;;;;;14.53;6.30;;;;;;;3.26;72.80;100083.70;126198;1096;104146;-79
2021/04/03 04:23:01;;;;;;;12.40;6.37;;;;;;;3.24;72.52;100086.20;126049;1099;104194;-78
2021/04/03 04:25:36;;;;;;;14.63;6.43;;;;;;;3.24;72.73;100087.87;126149;1096;101806;-77
2021/04/03 04:28:05;;;;;;;14.20;6.33;;;;;;;3.24;72.91;100088.79;126248;1099;104210;-79
2021/04/03 04:30:35;;;;;;;16.03;6.23;;;;;;;3.24;72.90;100096.57;126219;1099;104155;-78
2021/04/03 04:33:10;;;;;;;12.53;6.10;;;;;;;3.28;72.44;100101.94;126176;1099;104211;-78
2021/04/03 04:35:39;;;;;;;15.50;6.20;;;;;;;3.33;72.93;100103.09;126151;1099;104165;-78
2021/04/03 04:38:12;;;;;;;16.93;6.58;;;;;;;3.37;72.77;100103.36;126207;1096;104181;-78
2021/04/03 04:40:44;;;;;;;13.90;6.20;;;;;;;3.41;72.35;100096.64;126306;1096;104683;-78
2021/04/03 04:43:18;;;;;;;14.30;6.00;;;;;;;3.49;72.61;100104.86;126201;1096;104382;-79
2021/04/03 04:45:47;;;;;;;13.73;6.10;;;;;;;3.54;72.93;100106.92;126213;1099;104137;-79
2021/04/03 04:48:17;;;;;;;17.03;7.57;;;;;;;3.56;72.38;100107.02;126296;1098;104172;-79
2021/04/03 04:50:49;;;;;;;13.93;6.37;;;;;;;3.59;72.28;100108.08;126284;1099;102036;-79
2021/04/03 04:53:19;;;;;;;15.77;6.77;;;;;;;3.57;72.81;100112.29;126270;1096;104156;-79
2021/04/03 04:55:48;;;;;;;16.60;6.73;;;;;;;3.59;72.92;100121.05;126081;1099;104140;-77
2021/04/03 04:58:18;;;;;;;17.80;7.10;;;;;;;3.63;73.00;100113.44;126202;1099;106980;-78
2021/04/03 05:00:46;;;;;;;15.75;6.70;;;;;;;3.66;72.53;100116.20;126185;1099;104200;-79
2021/04/03 05:03:35;;;;;;;15.77;6.27;;;;;;;3.73;72.63;100113.17;126164;1099;104341;-78
2021/04/03 05:06:04;;;;;;;17.17;6.40;;;;;;;3.81;72.63;100121.39;126103;1099;104133;-79
2021/04/03 05:08:33;;;;;;;14.33;6.27;;;;;;;3.86;72.22;100120.82;126181;1099;112072;-78
2021/04/03 05:11:03;;;;;;;13.77;5.90;;;;;;;3.89;72.64;100128.78;126179;1099;104415;-78
2021/04/03 05:13:32;;;;;;;15.03;6.60;;;;;;;3.94;72.74;100137.75;126196;1099;104309;-79
2021/04/03 05:16:00;;;;;;;14.87;6.97;;;;;;;4.00;72.15;100144.96;126156;1098;104340;-78
2021/04/03 05:18:29;;;;;;;14.20;6.43;;;;;;;4.03;73.02;100144.25;126108;1099;105719;-78
2021/04/03 05:20:58;;;;;;;15.30;6.40;;;;;;;4.08;72.75;100138.52;126167;1099;104181;-78
2021/04/03 05:23:27;;;;;;;19.60;7.00;;;;;;;4.20;72.66;100135.69;126139;1099;104271;-79
2021/04/03 05:25:56;;;;;;;17.10;6.87;;;;;;;4.29;72.76;100123.21;126198;1098;104143;-79
2021/04/03 05:28:25;;;;;;;16.53;6.27;;;;;;;4.42;72.73;100124.77;126061;1099;104156;-78
2021/04/03 05:30:54;;;;;;;14.70;6.47;;;;;;;4.54;72.84;100128.86;126295;1096;104188;-78
2021/04/03 05:33:24;;;;;;;14.97;6.50;;;;;;;4.62;72.51;100123.23;126245;1099;104161;-78
2021/04/03 05:35:53;;;;;;;17.83;7.20;;;;;;;4.70;72.20;100114.97;126268;1099;104146;-79
2021/04/03 05:38:22;;;;;;;13.77;6.27;;;;;;;4.78;72.48;100113.66;126089;1099;104383;-78
2021/04/03 05:40:52;;;;;;;16.00;6.50;;;;;;;4.85;72.55;100120.98;126108;1099;104169;-79
2021/04/03 05:43:23;;;;;;;17.80;6.60;;;;;;;4.91;72.47;100123.91;126201;1099;104281;-79
2021/04/03 05:45:57;;;;;;;13.90;6.47;;;;;;;4.99;72.43;100121.70;126151;1099;104150;-78
2021/04/03 05:48:27;;;;;;;18.27;7.23;;;;;;;5.09;72.22;100120.45;126143;1099;104296;-77
2021/04/03 05:50:58;;;;;;;15.07;6.20;;;;;;;5.19;72.47;100121.02;126234;1099;104428;-79
2021/04/03 05:53:28;;;;;;;16.60;6.30;;;;;;;5.33;73.00;100121.72;126100;1099;104284;-77
2021/04/03 05:55:59;;;;;;;13.27;6.17;;;;;;;5.45;72.00;100130.95;126132;1099;104322;-78
2021/04/03 05:58:28;;;;;;;14.93;6.50;;;;;;;5.55;72.94;100125.40;126085;1098;104304;-78
2021/04/03 06:00:58;;;;;;;19.33;6.90;;;;;;;5.63;72.65;100129.27;126032;1099;104268;-78
2021/04/03 06:03:27;;;;;;;15.00;6.77;;;;;;;5.73;72.33;100122.79;126225;1096;104293;-79
2021/04/03 06:05:59;;;;;;;19.37;7.23;;;;;;;5.83;72.37;100124.13;126270;1096;104394;-78
2021/04/03 06:08:31;;;;;;;14.90;6.67;;;;;;;5.93;72.30;100122.04;126222;1096;104259;-78
2021/04/03 06:11:15;;;;;;;14.63;6.60;;;;;;;6.01;72.09;100114.63;126216;1099;104152;-78
2021/04/03 06:14:03;;;;;;;21.23;7.57;;;;;;;6.10;71.95;100120.28;126242;1099;104146;-78
2021/04/03 06:16:33;;;;;;;19.23;7.93;;;;;;;6.21;72.20;100119.91;126295;1099;104195;-78
2021/04/03 06:19:18;;;;;;;18.43;7.70;;;;;;;6.27;72.05;100110.66;126221;1096;104169;-79
2021/04/03 06:21:54;;;;;;;17.37;7.30;;;;;;;6.40;71.95;100109.50;126328;1096;104208;-78
2021/04/03 06:24:27;;;;;;;16.90;6.73;;;;;;;6.51;72.12;100109.11;126275;1096;104650;-79
2021/04/03 06:26:59;;;;;;;16.80;6.90;;;;;;;6.61;71.86;100106.99;126190;1096;104309;-78
2021/04/03 06:29:34;;;;;;;18.00;6.73;;;;;;;6.75;71.84;100117.17;126100;1096;104775;-78
2021/04/03 06:32:05;;;;;;;16.60;6.53;;;;;;;6.88;71.64;100119.48;126102;1099;104286;-77
2021/04/03 06:34:36;;;;;;;16.83;6.67;;;;;;;6.98;71.70;100125.98;126161;1099;104152;-79
2021/04/03 06:37:08;;;;;;;16.47;6.57;;;;;;;7.09;71.32;100135.20;126140;1099;104586;-78
2021/04/03 06:39:57;;;;;;;17.50;7.23;;;;;;;7.19;71.58;100137.36;126133;1096;104273;-79
2021/04/03 06:42:44;;;;;;;17.70;7.13;;;;;;;7.28;71.88;100141.22;126215;1096;104147;-78
2021/04/03 06:45:26;;;;;;;21.90;7.57;;;;;;;7.39;71.52;100137.34;126203;1096;104280;-78
2021/04/03 06:47:57;;;;;;;18.27;7.23;;;;;;;7.52;71.50;100136.13;126207;1096;104149;-78
2021/04/03 06:50:29;;;;;;;17.67;7.03;;;;;;;7.65;71.39;100143.67;126267;1096;112032;-79
2021/04/03 06:53:02;;;;;;;17.87;7.07;;;;;;;7.78;71.62;100134.61;126281;1099;104194;-78
2021/04/03 06:55:32;;;;;;;16.97;7.30;;;;;;;7.94;71.35;100143.08;126280;1098;104133;-79
2021/04/03 06:58:03;;;;;;;15.13;6.27;;;;;;;8.09;71.27;100146.30;126200;1099;104139;-79
2021/04/03 07:00:34;;;;;;;16.23;6.73;;;;;;;8.19;70.62;100147.55;126104;1099;104134;-79
2021/04/03 07:03:10;;;;;;;13.00;6.07;;;;;;;8.28;70.63;100148.80;126134;1096;104238;-79
2021/04/03 07:05:40;;;;;;;13.60;6.50;;;;;;;8.41;71.22;100155.42;126042;1099;104226;-79
2021/04/03 07:08:09;;;;;;;15.10;5.33;;;;;;;8.51;71.07;100161.92;126057;1099;104383;-79
2021/04/03 07:10:40;;;;;;;16.33;5.87;;;;;;;8.61;70.83;100150.08;125983;1096;104286;-77
2021/04/03 07:13:11;;;;;;;14.00;6.20;;;;;;;8.78;70.13;100154.21;126091;1099;104343;-78
2021/04/03 07:15:41;;;;;;;13.20;5.47;;;;;;;8.97;70.25;100153.16;126047;1099;104181;-77
2021/04/03 07:18:11;;;;;;;16.47;5.63;;;;;;;9.13;70.07;100151.09;126134;1099;104191;-78
2021/04/03 07:20:41;;;;;;;13.87;5.60;;;;;;;9.32;69.87;100156.16;126178;1099;104232;-78
2021/04/03 07:23:12;;;;;;;13.10;5.23;;;;;;;9.53;69.56;100157.74;126242;1098;104262;-79
2021/04/03 07:25:43;;;;;;;14.63;5.00;;;;;;;9.77;69.91;100159.41;126265;1099;104165;-79
2021/04/03 07:28:14;;;;;;;17.43;5.50;;;;;;;9.94;69.33;100167.83;126270;1099;104168;-79
2021/04/03 07:30:46;;;;;;;14.50;5.10;;;;;;;10.12;69.46;100159.69;126230;1099;104233;-79
2021/04/03 07:33:17;;;;;;;10.03;4.50;;;;;;;10.22;68.77;100152.16;126244;1099;104563;-79
2021/04/03 07:35:48;;;;;;;17.00;4.97;;;;;;;10.43;69.05;100149.33;126228;1099;104607;-78
2021/04/03 07:38:21;;;;;;;10.67;4.60;;;;;;;10.57;68.25;100159.37;126242;1099;104140;-78
2021/04/03 07:40:52;;;;;;;11.68;4.90;;;;;;;10.70;68.45;100145.75;126205;1097;104136;-79
2021/04/03 07:43:42;;;;;;;7.33;4.00;;;;;;;10.87;68.29;100142.73;126291;1099;104146;-77
2021/04/03 07:46:14;;;;;;;9.10;4.00;;;;;;;11.08;68.27;100148.60;126267;1097;104162;-78
2021/04/03 07:48:49;;;;;;;10.70;3.90;;;;;;;11.35;67.83;100160.70;126290;1099;104198;-79
2021/04/03 07:51:44;;;;;;;8.33;3.70;;;;;;;11.58;67.88;100157.81;126229;1099;104177;-79
2021/04/03 07:54:28;;;;;;;13.53;3.47;;;;;;;11.81;67.52;100150.49;125547;1099;104187;-78
2021/04/03 07:57:03;;;;;;;7.77;3.20;;;;;;;11.96;66.93;100156.16;126180;1099;104291;-77
2021/04/03 07:59:48;;;;;;;9.43;2.80;;;;;;;12.12;66.66;100152.16;126140;1099;104236;-78
2021/04/03 08:02:20;;;;;;;8.87;2.57;;;;;;;12.23;66.02;100160.30;126138;1099;107174;-78
2021/04/03 08:04:49;;;;;;;11.77;3.00;;;;;;;12.32;65.89;100164.91;126131;1099;104322;-79
2021/04/03 08:07:21;;;;;;;7.67;2.50;;;;;;;12.41;65.61;100159.86;126068;1099;104137;-79
2021/04/03 08:09:51;;;;;;;10.87;2.67;;;;;;;12.51;65.39;100160.94;126095;1099;104182;-79
2021/04/03 08:12:26;;;;;;;4.17;2.03;;;;;;;12.52;64.62;100153.08;126087;1098;118798;-79
2021/04/03 08:14:57;;;;;;;4.63;2.07;;;;;;;12.51;64.32;100148.70;126112;1099;104197;-78
2021/04/03 08:17:26;;;;;;;3.30;1.90;;;;;;;12.51;63.99;100156.59;126171;1099;105906;-78
2021/04/03 08:19:59;;;;;;;16.37;2.63;;;;;;;12.58;64.19;100160.23;126131;1099;104382;-78
2021/04/03 08:22:28;;;;;;;6.70;2.80;;;;;;;12.56;63.56;100165.47;126110;1099;104319;-79
2021/04/03 08:24:59;;;;;;;6.67;3.10;;;;;;;12.51;63.16;100163.58;126121;1099;105432;-79
2021/04/03 08:27:39;;;;;;;9.43;2.70;;;;;;;12.48;63.17;100166.14;126257;1099;104140;-79
2021/04/03 08:33:17;;;;;;;5.23;2.60;;;;;;;12.35;61.54;100152.70;126188;1099;111717;-79
2021/04/03 08:35:48;;;;;;;11.33;3.00;;;;;;;12.28;62.02;100144.63;126307;1099;104216;-79
2021/04/03 08:38:23;;;;;;;7.37;2.87;;;;;;;12.27;61.64;100142.88;126275;1099;104188;-79
2021/04/03 08:40:55;;;;;;;6.43;2.57;;;;;;;12.39;62.11;100145.79;126205;1099;104236;-80
2021/04/03 08:43:27;;;;;;;7.13;2.70;;;;;;;12.30;60.89;100138.56;126301;1099;104140;-80
2021/04/03 08:46:03;;;;;;;3.53;2.40;;;;;;;12.17;60.49;100140.03;126244;1099;104233;-79
2021/04/03 08:48:34;;;;;;;3.73;2.40;;;;;;;12.06;60.60;100138.89;126298;1096;104223;-79
2021/04/03 08:51:05;;;;;;;4.27;2.57;;;;;;;12.13;60.19;100147.81;126256;1099;104274;-79
2021/04/03 08:53:40;;;;;;;5.60;2.67;;;;;;;12.27;60.39;100145.50;126179;1099;108197;-79
2021/04/03 08:56:10;;;;;;;5.87;2.40;;;;;;;12.43;60.44;100150.24;126297;1099;104136;-78
2021/04/03 08:58:41;;;;;;;4.27;2.27;;;;;;;12.47;59.76;100157.36;126090;1099;104177;-78
2021/04/03 09:01:10;;;;;;;3.17;1.83;;;;;;;12.52;59.55;100152.20;126103;1099;104216;-78
2021/04/03 09:03:40;;;;;;;6.67;2.50;;;;;;;12.57;59.88;100148.83;126067;1099;104268;-78
2021/04/03 09:06:09;;;;;;;3.13;2.03;;;;;;;12.65;59.51;100145.45;126064;1099;104299;-79
2021/04/03 09:08:38;;;;;;;4.30;2.47;;;;;;;12.74;59.56;100145.66;126042;1098;104278;-78
2021/04/03 09:11:07;;;;;;;6.53;2.17;;;;;;;12.84;59.59;100142.37;126092;1099;104239;-78
2021/04/03 09:13:39;;;;;;;2.60;1.90;;;;;;;12.94;58.92;100141.69;126147;1099;104271;-79
2021/04/03 09:16:10;;;;;;;4.70;1.90;;;;;;;12.98;58.79;100141.75;126298;1097;104133;-78
2021/04/03 09:18:40;;;;;;;4.57;2.10;;;;;;;13.05;58.44;100147.17;126222;1099;104208;-80
2021/04/03 09:21:18;;;;;;;5.60;2.30;;;;;;;13.11;58.68;100143.78;126226;1099;104150;-78
2021/04/03 09:23:50;;;;;;;2.57;1.73;;;;;;;13.18;57.86;100143.02;126167;1099;104192;-79
2021/04/03 09:26:32;;;;;;;3.87;2.00;;;;;;;13.26;57.73;100140.53;126281;1095;104172;-78
2021/04/03 09:29:11;;;;;;;5.17;2.13;;;;;;;13.28;57.60;100134.45;126153;1099;104255;-79
2021/04/03 09:31:45;;;;;;;2.93;2.17;;;;;;;13.31;56.63;100131.87;126239;1096;104143;-78
2021/04/03 09:34:17;;;;;;;6.67;3.10;;;;;;;13.42;56.66;100133.86;126237;1098;104149;-79
2021/04/03 09:36:50;;;;;;;6.20;2.20;;;;;;;13.47;57.04;100127.80;126275;1099;104264;-79
2021/04/03 09:39:20;;;;;;;3.23;1.90;;;;;;;13.53;56.59;100134.93;126273;1099;104214;-79
2021/04/03 09:41:52;;;;;;;4.70;2.10;;;;;;;13.65;55.19;100129.88;126256;1099;104210;-78
2021/04/03 09:44:21;;;;;;;6.73;2.30;;;;;;;13.82;56.19;100121.34;126166;1099;104169;-79
2021/04/03 09:46:52;;;;;;;3.43;2.10;;;;;;;13.93;54.62;100124.16;126252;1096;104182;-78
2021/04/03 09:49:21;;;;;;;3.90;2.07;;;;;;;13.98;54.91;100128.66;126353;1098;104188;-79
2021/04/03 09:51:50;;;;;;;3.20;1.87;;;;;;;14.06;55.34;100126.14;126240;1096;104319;-79
2021/04/03 09:54:19;;;;;;;18.90;4.70;;;;;;;14.20;55.43;100119.31;126203;1096;104133;-78
2021/04/03 09:56:48;;;;;;;6.90;2.07;;;;;;;14.27;54.52;100112.36;126186;1099;104185;-80
2021/04/03 09:59:18;;;;;;;3.77;2.00;;;;;;;14.30;55.02;100111.53;126325;1099;104204;-78
2021/04/03 10:01:48;;;;;;;3.90;2.10;;;;;;;14.46;54.88;100116.17;126285;1099;104149;-78
2021/04/03 10:04:17;;;;;;;4.70;2.13;;;;;;;14.59;54.13;100119.86;126271;1096;104258;-79
2021/04/03 10:06:47;;;;;;;6.03;2.40;;;;;;;14.74;54.39;100117.45;126151;1099;104749;-79
2021/04/03 10:09:16;;;;;;;4.03;2.13;;;;;;;14.78;54.60;100118.36;126155;1099;104380;-78
2021/04/03 10:11:46;;;;;;;3.03;1.93;;;;;;;14.74;53.05;100119.22;126170;1099;104294;-79
2021/04/03 10:14:15;;;;;;;3.50;2.23;;;;;;;14.70;54.01;100123.55;126148;1099;104201;-79
2021/04/03 10:16:45;;;;;;;3.85;1.80;;;;;;;14.79;53.26;100133.36;126187;1099;104396;-79
2021/04/03 10:19:15;;;;;;;2.57;1.93;;;;;;;14.84;52.96;100136.93;126187;1099;104499;-79
2021/04/03 10:21:44;;;;;;;3.63;2.03;;;;;;;15.00;53.20;100131.84;126143;1099;104197;-79
2021/04/03 10:24:13;;;;;;;6.07;2.20;;;;;;;15.16;52.66;100119.67;126071;1099;104252;-78
2021/04/03 10:26:42;;;;;;;7.47;2.20;;;;;;;15.31;52.54;100114.55;126225;1099;104281;-78
2021/04/03 10:29:12;;;;;;;11.10;2.40;;;;;;;15.52;53.06;100112.98;126122;1099;104345;-78
2021/04/03 10:31:41;;;;;;;4.40;1.97;;;;;;;15.66;52.88;100103.44;126099;1099;104283;-80
2021/04/03 10:34:10;;;;;;;2.97;1.97;;;;;;;15.73;52.39;100099.95;126080;1099;104466;-79
2021/04/03 10:36:39;;;;;;;5.07;2.10;;;;;;;15.74;51.85;100104.38;126167;1099;104321;-79
2021/04/03 10:39:09;;;;;;;6.80;2.17;;;;;;;15.74;51.71;100096.45;126197;1099;104156;-79
2021/04/03 10:41:38;;;;;;;6.83;2.10;;;;;;;15.80;51.60;100095.66;126268;1099;104134;-79
2021/04/03 10:44:08;;;;;;;9.80;2.63;;;;;;;15.88;52.37;100093.95;126225;1099;104225;-79
2021/04/03 10:46:37;;;;;;;4.13;1.70;;;;;;;15.91;51.74;100101.00;126252;1099;104261;-79
2021/04/03 10:49:07;;;;;;;4.10;1.80;;;;;;;15.74;51.06;100099.09;126240;1099;104309;-78
2021/04/03 10:51:35;;;;;;;3.67;1.80;;;;;;;15.63;50.53;100093.70;126208;1099;104255;-79
2021/04/03 10:54:04;;;;;;;4.80;1.83;;;;;;;15.59;50.09;100091.90;126233;1096;104172;-78
2021/04/03 10:56:33;;;;;;;3.33;1.80;;;;;;;15.61;50.26;100087.53;126303;1099;104249;-79
2021/04/03 10:59:02;;;;;;;11.03;2.33;;;;;;;15.73;50.38;100083.20;126257;1099;104139;-77
2021/04/03 11:01:31;;;;;;;9.93;2.30;;;;;;;15.79;50.08;100078.88;126209;1099;104198;-79
2021/04/03 11:04:00;;;;;;;6.93;1.83;;;;;;;15.84;50.64;100075.39;126206;1099;104172;-78
2021/04/03 11:06:29;;;;;;;1.80;1.57;;;;;;;15.85;50.44;100077.14;126267;1099;104255;-78
2021/04/03 11:08:57;;;;;;;11.60;2.13;;;;;;;15.88;49.84;100072.78;126295;1098;104203;-78
2021/04/03 11:11:26;;;;;;;5.67;2.50;;;;;;;15.93;50.35;100073.69;126233;1099;104134;-79
2021/04/03 11:13:55;;;;;;;7.37;2.60;;;;;;;16.03;50.10;100063.16;126253;1096;104146;-79
2021/04/03 11:16:26;;;;;;;2.30;1.70;;;;;;;16.08;49.71;100075.56;126197;1099;104137;-78
2021/04/03 11:18:55;;;;;;;6.00;2.40;;;;;;;16.06;48.86;100072.00;126291;1099;104140;-79
2021/04/03 11:21:27;;;;;;;3.20;1.90;;;;;;;16.05;49.20;100070.25;126251;1099;104209;-78
2021/04/03 11:23:56;;;;;;;4.73;2.37;;;;;;;15.92;48.27;100074.55;126189;1099;104319;-77
2021/04/03 11:26:26;;;;;;;4.67;2.40;;;;;;;15.85;48.72;100069.20;126142;1096;104152;-79
2021/04/03 11:28:55;;;;;;;6.03;2.20;;;;;;;15.87;48.91;100070.13;126232;1096;104168;-79
2021/04/03 11:31:24;;;;;;;3.85;2.10;;;;;;;15.85;48.47;100064.82;126321;1096;104162;-79
2021/04/03 11:33:54;;;;;;;5.00;2.40;;;;;;;15.85;48.07;100061.27;126298;1096;104469;-78